Time;durP1;ratioP1;P1;durP2;ratioP2;P2;SDS_P1;SDS_P2;PMS_P1;PMS_P2;Temp;Humidity;BMP_temperature;BMP_pressure;BME280_temperature;BME280_humidity;BME280_pressure;Samples;Min_cycle;Max_cycle;Signal;HPM_P1;HPM_P2
2021/12/31 00:02:56;;;;;;;15.85;8.20;;;14.20;73.10;;;;;;6228150;28;20456;-71
2021/12/31 00:05:57;;;;;;;17.00;7.78;;;14.20;72.90;;;;;;6238622;28;20119;-71
2021/12/31 00:08:58;;;;;;;17.65;8.02;;;14.20;72.80;;;;;;6240991;28;20037;-71
2021/12/31 00:12:03;;;;;;;15.63;7.53;;;14.20;72.70;;;;;;6236053;28;20038;-72
2021/12/31 00:15:05;;;;;;;12.20;6.15;;;14.10;72.50;;;;;;6239889;28;20037;-72
2021/12/31 00:18:06;;;;;;;14.35;7.18;;;14.10;72.50;;;;;;6236024;28;20359;-71
2021/12/31 00:21:07;;;;;;;11.40;6.47;;;14.10;72.30;;;;;;6238543;28;20033;-71
2021/12/31 00:24:09;;;;;;;14.57;6.95;;;14.00;72.00;;;;;;6217788;28;20038;-72
2021/12/31 00:27:10;;;;;;;12.50;6.43;;;14.00;71.90;;;;;;6208953;28;20034;-72
2021/12/31 00:30:12;;;;;;;16.50;7.13;;;13.90;71.70;;;;;;6233706;28;20037;-69
2021/12/31 00:33:14;;;;;;;14.60;6.90;;;13.90;71.60;;;;;;6234240;28;20034;-70
2021/12/31 00:36:16;;;;;;;15.35;7.45;;;13.80;71.60;;;;;;6241265;28;20056;-70
2021/12/31 00:39:17;;;;;;;18.42;8.80;;;13.80;71.60;;;;;;6234214;28;20053;-70
2021/12/31 00:42:21;;;;;;;17.48;7.97;;;13.70;71.60;;;;;;6238706;28;20095;-69
2021/12/31 00:45:26;;;;;;;17.65;8.05;;;13.70;71.60;;;;;;6248703;28;20052;-71
2021/12/31 00:48:27;;;;;;;18.95;9.13;;;13.70;71.80;;;;;;6242225;28;20432;-72
2021/12/31 00:51:29;;;;;;;17.58;9.15;;;13.60;71.90;;;;;;6234601;28;20037;-71
2021/12/31 00:54:30;;;;;;;16.77;8.80;;;13.60;72.10;;;;;;6241171;28;20037;-73
2021/12/31 00:57:32;;;;;;;21.55;8.93;;;13.50;72.40;;;;;;6237540;28;20051;-71
2021/12/31 01:00:34;;;;;;;20.15;8.55;;;13.40;72.60;;;;;;6239817;28;20106;-72
2021/12/31 01:03:35;;;;;;;16.88;8.60;;;13.40;72.90;;;;;;6225508;28;20080;-73
2021/12/31 01:06:36;;;;;;;13.35;7.35;;;13.40;73.10;;;;;;6218108;28;20041;-72
2021/12/31 01:09:37;;;;;;;14.13;7.32;;;13.40;73.20;;;;;;6193552;28;20053;-72
2021/12/31 01:12:39;;;;;;;15.68;7.50;;;13.30;73.30;;;;;;6207323;28;20371;-72
2021/12/31 01:15:44;;;;;;;11.85;6.75;;;13.30;73.50;;;;;;6199582;28;20030;-73
2021/12/31 01:21:55;;;;;;;16.80;8.18;;;13.30;73.80;;;;;;6193524;28;20042;-72
2021/12/31 01:24:58;;;;;;;18.10;6.95;;;13.20;73.50;;;;;;6203334;28;20651;-72
2021/12/31 01:27:59;;;;;;;16.10;7.25;;;13.20;73.50;;;;;;6188978;28;21146;-72
2021/12/31 01:31:00;;;;;;;15.02;8.00;;;13.30;73.50;;;;;;6192047;28;20144;-72
2021/12/31 01:34:02;;;;;;;17.75;7.50;;;13.20;73.40;;;;;;6181120;28;20495;-71
2021/12/31 01:37:04;;;;;;;21.75;8.73;;;13.20;73.50;;;;;;6178801;28;20181;-73
2021/12/31 01:40:07;;;;;;;18.30;7.68;;;13.20;73.60;;;;;;6187208;28;20034;-72
2021/12/31 01:43:08;;;;;;;19.70;7.30;;;13.20;73.60;;;;;;6185305;28;20041;-72
2021/12/31 01:46:12;;;;;;;17.52;7.20;;;13.20;73.60;;;;;;6181587;28;20047;-73
2021/12/31 01:49:20;;;;;;;16.85;7.25;;;13.20;73.80;;;;;;6175826;28;20048;-73
2021/12/31 01:52:23;;;;;;;14.07;7.45;;;13.10;73.80;;;;;;6198242;28;20045;-73
2021/12/31 01:55:29;;;;;;;23.85;6.75;;;13.10;74.00;;;;;;6216012;28;20049;-73
2021/12/31 01:58:30;;;;;;;16.45;6.57;;;13.00;74.10;;;;;;6217387;28;20049;-73
2021/12/31 02:01:34;;;;;;;16.95;6.78;;;13.00;74.30;;;;;;6232883;28;20465;-73
2021/12/31 02:04:40;;;;;;;13.70;7.07;;;13.00;75.20;;;;;;6234698;28;20041;-73
2021/12/31 02:07:42;;;;;;;12.43;6.13;;;12.90;74.30;;;;;;6240488;28;20033;-73
2021/12/31 02:10:43;;;;;;;13.50;6.70;;;12.90;74.30;;;;;;6242258;28;20045;-73
2021/12/31 02:13:44;;;;;;;20.58;6.50;;;12.80;74.40;;;;;;6245160;28;20042;-73
2021/12/31 02:16:45;;;;;;;15.90;6.60;;;12.70;74.50;;;;;;6239639;28;20038;-73
2021/12/31 02:20:03;;;;;;;11.15;5.57;;;12.70;74.70;;;;;;6241182;28;20513;-73
2021/12/31 02:23:08;;;;;;;15.07;6.70;;;12.70;74.90;;;;;;6235684;28;20117;-73
2021/12/31 02:26:10;;;;;;;11.80;5.93;;;12.70;75.00;;;;;;6203227;28;20026;-73
2021/12/31 02:29:11;;;;;;;9.13;5.45;;;12.60;74.80;;;;;;6230643;28;20049;-73
2021/12/31 02:32:12;;;;;;;10.52;5.90;;;12.60;74.60;;;;;;6234430;28;20359;-73
2021/12/31 02:35:14;;;;;;;17.05;6.05;;;12.50;74.60;;;;;;6240459;28;20034;-73
2021/12/31 02:38:15;;;;;;;14.15;5.82;;;12.50;75.50;;;;;;6241235;28;20099;-72
2021/12/31 02:41:17;;;;;;;10.40;5.32;;;12.50;74.80;;;;;;6238222;28;20033;-72
2021/12/31 02:44:18;;;;;;;15.68;6.25;;;12.40;74.90;;;;;;6231854;28;20064;-73
2021/12/31 02:47:21;;;;;;;12.80;5.80;;;12.40;74.90;;;;;;6236399;28;20030;-73
2021/12/31 02:50:33;;;;;;;14.50;5.68;;;12.40;74.90;;;;;;6236267;28;20408;-73
2021/12/31 02:53:40;;;;;;;11.38;5.38;;;12.30;74.80;;;;;;6223424;28;20037;-72
2021/12/31 02:56:42;;;;;;;7.53;4.60;;;12.30;74.80;;;;;;6224730;28;20167;-73
2021/12/31 02:59:44;;;;;;;8.65;4.93;;;12.20;74.70;;;;;;6223545;28;20032;-72
2021/12/31 03:02:46;;;;;;;8.75;4.88;;;12.20;74.70;;;;;;6223740;28;20126;-73
2021/12/31 03:05:50;;;;;;;9.30;4.72;;;12.10;74.60;;;;;;6225671;28;20037;-72
2021/12/31 03:08:53;;;;;;;7.28;4.50;;;12.10;74.70;;;;;;6226907;28;20038;-72
2021/12/31 03:11:57;;;;;;;13.05;5.53;;;12.10;74.70;;;;;;6231472;28;20034;-72
2021/12/31 03:14:59;;;;;;;9.00;5.05;;;12.00;74.80;;;;;;6224838;28;20044;-72
2021/12/31 03:18:03;;;;;;;11.02;5.30;;;12.00;74.80;;;;;;6218880;28;20289;-73
2021/12/31 03:21:09;;;;;;;9.23;4.95;;;12.00;74.50;;;;;;6228580;28;20037;-72
2021/12/31 03:24:10;;;;;;;7.97;4.50;;;11.90;74.50;;;;;;6240965;28;20037;-72
2021/12/31 03:27:11;;;;;;;14.18;5.05;;;11.90;74.50;;;;;;6245765;28;20110;-72
2021/12/31 03:30:13;;;;;;;9.48;3.80;;;11.80;74.60;;;;;;6223665;28;20052;-72
2021/12/31 03:33:15;;;;;;;10.13;4.80;;;11.70;74.50;;;;;;6228533;28;20120;-72
2021/12/31 03:36:17;;;;;;;6.72;3.83;;;11.70;74.60;;;;;;6228028;28;20084;-73
2021/12/31 03:39:18;;;;;;;7.60;4.05;;;11.60;74.70;;;;;;6227091;28;20057;-73
2021/12/31 03:42:20;;;;;;;6.22;3.88;;;11.60;75.00;;;;;;6223121;28;20107;-72
2021/12/31 03:45:21;;;;;;;7.22;4.00;;;11.50;75.10;;;;;;6216415;28;20482;-72
2021/12/31 03:48:22;;;;;;;5.60;3.50;;;11.50;75.20;;;;;;6238048;28;20033;-72
2021/12/31 03:51:23;;;;;;;5.63;3.45;;;11.50;75.10;;;;;;6235817;28;20432;-71
2021/12/31 03:54:24;;;;;;;8.02;3.90;;;11.50;75.10;;;;;;6225745;28;20366;-71
2021/12/31 03:57:25;;;;;;;6.45;3.83;;;11.50;75.20;;;;;;6231587;28;20051;-73
2021/12/31 04:00:29;;;;;;;8.50;3.33;;;11.40;75.20;;;;;;6213995;28;20091;-72
2021/12/31 04:03:30;;;;;;;5.70;3.25;;;11.40;75.10;;;;;;6224789;28;20078;-72
2021/12/31 04:06:31;;;;;;;5.40;3.60;;;11.40;75.10;;;;;;6236477;28;20055;-72
2021/12/31 04:09:32;;;;;;;5.75;3.33;;;11.40;75.10;;;;;;6228231;28;21035;-73
2021/12/31 04:12:33;;;;;;;4.57;3.17;;;11.40;75.00;;;;;;6229873;28;20377;-72
2021/12/31 04:15:35;;;;;;;5.45;3.40;;;11.30;74.90;;;;;;6204175;28;20054;-74
2021/12/31 04:18:36;;;;;;;5.97;2.63;;;11.30;74.90;;;;;;6179841;28;20046;-73
2021/12/31 04:21:37;;;;;;;6.75;3.75;;;11.30;75.00;;;;;;6160694;28;20041;-73
2021/12/31 04:27:45;;;;;;;6.07;3.47;;;11.30;75.00;;;;;;6190711;28;20049;-72
2021/12/31 04:30:46;;;;;;;6.90;3.33;;;11.30;74.90;;;;;;6194529;28;20426;-73
2021/12/31 04:33:47;;;;;;;4.47;3.25;;;11.20;74.80;;;;;;6205111;28;20176;-73
2021/12/31 04:36:49;;;;;;;6.32;3.85;;;11.20;74.90;;;;;;6208953;28;20053;-73
2021/12/31 04:39:50;;;;;;;8.32;3.80;;;11.20;75.00;;;;;;6222812;28;20060;-73
2021/12/31 04:42:51;;;;;;;6.07;3.42;;;11.20;75.10;;;;;;6224039;28;20454;-72
2021/12/31 04:45:52;;;;;;;6.20;3.17;;;11.20;75.20;;;;;;6234420;28;20045;-72
2021/12/31 04:48:53;;;;;;;6.35;3.53;;;11.20;75.10;;;;;;6223881;28;20101;-72
2021/12/31 04:51:54;;;;;;;5.90;3.30;;;11.30;75.00;;;;;;6236818;28;20508;-73
2021/12/31 04:54:55;;;;;;;4.95;3.10;;;11.30;74.80;;;;;;6228890;28;20037;-73
2021/12/31 04:57:56;;;;;;;4.68;3.35;;;11.30;74.80;;;;;;6227677;28;20417;-71
2021/12/31 05:00:57;;;;;;;4.68;3.15;;;11.30;74.60;;;;;;6222777;28;20359;-72
2021/12/31 05:03:58;;;;;;;4.85;2.97;;;11.20;74.50;;;;;;6236420;28;20033;-71
2021/12/31 05:06:59;;;;;;;5.38;3.25;;;11.20;74.60;;;;;;6237579;28;20057;-71
2021/12/31 05:10:00;;;;;;;5.72;3.08;;;11.20;74.60;;;;;;6236441;28;20137;-72
2021/12/31 05:13:03;;;;;;;5.25;3.50;;;11.20;74.80;;;;;;6236479;28;20112;-72
2021/12/31 05:16:06;;;;;;;8.18;4.07;;;11.20;74.80;;;;;;6236502;28;20042;-72
2021/12/31 05:19:07;;;;;;;6.45;3.20;;;11.10;74.80;;;;;;6231886;28;20504;-72
2021/12/31 05:22:08;;;;;;;6.25;3.53;;;11.20;74.80;;;;;;6213738;28;20112;-72
2021/12/31 05:25:09;;;;;;;5.47;3.55;;;11.20;74.70;;;;;;6230567;28;20037;-72
2021/12/31 05:28:10;;;;;;;6.93;3.35;;;11.20;74.60;;;;;;6216291;28;20048;-72
2021/12/31 05:31:11;;;;;;;5.60;3.63;;;11.20;74.60;;;;;;6229966;28;20455;-72
2021/12/31 05:34:13;;;;;;;5.80;3.28;;;11.10;74.40;;;;;;6226905;28;20124;-72
2021/12/31 05:37:14;;;;;;;5.43;3.25;;;11.10;74.40;;;;;;6234802;28;20044;-73
2021/12/31 05:40:15;;;;;;;5.70;3.30;;;11.00;74.60;;;;;;6228828;28;20056;-71
2021/12/31 05:43:16;;;;;;;3.70;3.08;;;11.00;74.70;;;;;;6228090;28;20033;-72
2021/12/31 05:46:17;;;;;;;6.43;3.28;;;11.00;74.60;;;;;;6220222;28;20386;-73
2021/12/31 05:49:18;;;;;;;7.28;2.80;;;11.10;74.60;;;;;;6224415;28;20029;-72
2021/12/31 05:52:19;;;;;;;5.50;2.67;;;11.10;74.70;;;;;;6223797;28;20041;-72
2021/12/31 05:55:20;;;;;;;5.05;2.75;;;11.10;74.60;;;;;;6217144;28;20037;-72
2021/12/31 05:58:21;;;;;;;5.65;3.05;;;11.00;74.50;;;;;;6217792;28;20030;-72
2021/12/31 06:01:22;;;;;;;5.88;3.50;;;11.00;74.50;;;;;;6226007;28;20033;-74
2021/12/31 06:04:23;;;;;;;5.55;2.90;;;11.00;74.50;;;;;;6230676;28;20029;-72
2021/12/31 06:07:24;;;;;;;8.63;3.35;;;11.00;74.60;;;;;;6226876;28;20455;-72
2021/12/31 06:10:26;;;;;;;5.38;3.35;;;11.00;74.30;;;;;;6232452;28;20501;-72
2021/12/31 06:13:27;;;;;;;12.05;3.70;;;10.90;74.00;;;;;;6230856;28;20890;-72
2021/12/31 06:16:30;;;;;;;7.85;4.07;;;10.80;73.90;;;;;;6219450;28;20060;-72
2021/12/31 06:19:31;;;;;;;7.15;3.45;;;10.70;73.90;;;;;;6227764;28;20390;-72
2021/12/31 06:22:32;;;;;;;9.05;3.78;;;10.70;73.90;;;;;;6213375;28;20128;-72
2021/12/31 06:25:33;;;;;;;8.18;4.22;;;10.60;74.00;;;;;;6247419;28;20100;-72
2021/12/31 06:28:34;;;;;;;5.50;3.22;;;10.50;74.10;;;;;;6238367;28;20034;-72
2021/12/31 06:31:35;;;;;;;6.72;3.75;;;10.50;74.20;;;;;;6244444;28;20426;-72
2021/12/31 06:34:36;;;;;;;6.32;3.55;;;10.40;74.40;;;;;;6228025;28;20029;-72
2021/12/31 06:37:37;;;;;;;8.18;3.58;;;10.40;74.60;;;;;;6216350;28;20056;-72
2021/12/31 06:40:39;;;;;;;14.40;4.40;;;10.40;74.60;;;;;;6233246;28;20044;-72
2021/12/31 06:43:40;;;;;;;11.27;3.60;;;10.40;74.50;;;;;;6232177;28;21291;-72
2021/12/31 06:46:41;;;;;;;7.70;4.00;;;10.50;74.60;;;;;;6234742;28;20750;-72
2021/12/31 06:49:43;;;;;;;6.28;3.50;;;10.50;74.60;;;;;;6230874;28;20129;-72
2021/12/31 06:52:46;;;;;;;6.53;3.60;;;10.50;74.10;;;;;;6205836;28;20044;-72
2021/12/31 06:55:47;;;;;;;5.18;3.42;;;10.40;74.00;;;;;;6213302;28;20060;-72
2021/12/31 06:58:48;;;;;;;7.55;3.30;;;10.30;74.20;;;;;;6213955;28;20045;-72
2021/12/31 07:01:50;;;;;;;6.35;3.55;;;10.30;74.30;;;;;;6190831;28;20108;-73
2021/12/31 07:04:51;;;;;;;7.45;3.97;;;10.30;74.50;;;;;;6212182;28;20044;-72
2021/12/31 07:07:51;;;;;;;8.77;3.70;;;10.30;74.60;;;;;;6213515;28;20041;-72
2021/12/31 07:10:52;;;;;;;5.40;3.15;;;10.30;74.60;;;;;;6214118;28;20442;-73
2021/12/31 07:13:54;;;;;;;5.85;3.70;;;10.40;74.70;;;;;;6205426;28;20557;-72
2021/12/31 07:16:55;;;;;;;9.35;4.00;;;10.40;74.60;;;;;;6207817;28;20048;-72
2021/12/31 07:19:56;;;;;;;6.88;3.75;;;10.50;74.50;;;;;;6207994;28;20393;-72
2021/12/31 07:23:10;;;;;;;8.30;3.65;;;10.40;74.20;;;;;;6206253;28;20056;-72
2021/12/31 07:26:11;;;;;;;5.55;3.33;;;10.40;74.10;;;;;;6212062;28;20045;-73
2021/12/31 07:29:12;;;;;;;6.68;3.85;;;10.40;73.90;;;;;;6206988;28;20063;-73
2021/12/31 07:32:13;;;;;;;4.70;2.83;;;10.40;73.90;;;;;;6219504;28;20242;-73
2021/12/31 07:35:14;;;;;;;5.57;3.15;;;10.30;73.90;;;;;;6195935;28;20045;-73
2021/12/31 07:38:31;;;;;;;7.30;3.42;;;10.30;74.00;;;;;;6217351;28;20053;-73
2021/12/31 07:41:33;;;;;;;6.60;2.95;;;10.30;74.80;;;;;;6220212;28;20029;-73
2021/12/31 07:44:34;;;;;;;7.93;3.33;;;10.30;74.00;;;;;;6226449;28;20139;-71
2021/12/31 07:47:35;;;;;;;7.28;2.95;;;10.30;74.10;;;;;;6228408;28;20352;-72
2021/12/31 07:50:37;;;;;;;13.80;3.22;;;10.30;74.10;;;;;;6238083;28;20038;-72
2021/12/31 07:53:38;;;;;;;5.70;3.45;;;10.40;74.20;;;;;;6242811;28;20056;-72
2021/12/31 07:56:39;;;;;;;6.75;3.10;;;10.30;74.20;;;;;;6239349;28;20037;-73
2021/12/31 07:59:40;;;;;;;10.13;3.88;;;10.40;73.90;;;;;;6242413;28;20336;-73
2021/12/31 08:02:41;;;;;;;8.18;3.72;;;10.40;73.70;;;;;;6227289;28;20107;-73
2021/12/31 08:05:42;;;;;;;9.23;4.03;;;10.40;73.70;;;;;;6224343;28;20034;-74
2021/12/31 08:08:43;;;;;;;6.05;2.97;;;10.40;73.70;;;;;;6236936;28;20045;-72
2021/12/31 08:11:44;;;;;;;6.88;2.97;;;10.40;73.50;;;;;;6240882;28;20371;-72
2021/12/31 08:14:45;;;;;;;7.20;3.75;;;10.40;73.30;;;;;;6239605;28;20025;-73
2021/12/31 08:17:46;;;;;;;10.07;3.10;;;10.40;73.30;;;;;;6235831;28;20041;-73
2021/12/31 08:20:48;;;;;;;4.95;2.45;;;10.40;73.40;;;;;;6223505;28;20124;-72
2021/12/31 08:23:50;;;;;;;4.82;3.03;;;10.40;73.40;;;;;;6237779;28;20478;-71
2021/12/31 08:26:51;;;;;;;17.08;3.95;;;10.40;73.20;;;;;;6232279;28;20506;-72
2021/12/31 08:29:52;;;;;;;5.25;3.10;;;10.40;73.30;;;;;;6224016;28;20041;-72
2021/12/31 08:32:53;;;;;;;7.00;3.45;;;10.40;73.10;;;;;;6213058;28;20078;-72
2021/12/31 08:35:55;;;;;;;5.85;3.22;;;10.50;73.00;;;;;;6209461;28;20041;-72
2021/12/31 08:38:56;;;;;;;9.43;4.28;;;10.40;73.00;;;;;;6205001;28;20499;-73
2021/12/31 08:41:59;;;;;;;9.30;3.83;;;10.50;73.30;;;;;;6199489;28;20167;-73
2021/12/31 08:45:00;;;;;;;11.55;3.90;;;10.60;73.40;;;;;;6200477;28;20556;-72
2021/12/31 08:48:03;;;;;;;6.72;3.97;;;10.70;73.30;;;;;;6195421;28;20152;-73
2021/12/31 08:51:04;;;;;;;11.50;4.50;;;10.80;73.30;;;;;;6194950;28;20034;-72
2021/12/31 08:54:06;;;;;;;7.10;3.08;;;10.90;73.00;;;;;;6193626;28;20473;-73
2021/12/31 08:57:07;;;;;;;6.07;3.47;;;10.90;72.60;;;;;;6203193;28;20040;-72
2021/12/31 09:00:08;;;;;;;5.68;3.22;;;11.00;72.60;;;;;;6198381;28;20358;-72
2021/12/31 09:03:09;;;;;;;9.07;4.28;;;11.00;72.40;;;;;;6225709;28;20136;-72
2021/12/31 09:06:11;;;;;;;8.15;3.72;;;11.10;72.30;;;;;;6229007;28;20041;-72
2021/12/31 09:09:13;;;;;;;7.28;3.45;;;11.20;72.30;;;;;;6226036;28;20071;-74
2021/12/31 09:12:14;;;;;;;12.55;4.53;;;11.30;72.20;;;;;;6229809;28;20087;-73
2021/12/31 09:15:15;;;;;;;7.32;3.10;;;11.30;72.20;;;;;;6228104;28;20041;-72
2021/12/31 09:18:16;;;;;;;7.15;3.40;;;11.40;71.90;;;;;;6225526;28;20092;-73
2021/12/31 09:21:17;;;;;;;7.50;3.03;;;11.50;71.70;;;;;;6223465;28;20122;-72
2021/12/31 09:24:18;;;;;;;6.97;3.33;;;11.60;71.50;;;;;;6239598;28;20111;-72
2021/12/31 09:27:20;;;;;;;12.63;3.47;;;11.70;71.50;;;;;;6236458;28;20029;-72
2021/12/31 09:30:21;;;;;;;6.35;3.10;;;11.80;71.30;;;;;;6236199;28;20069;-71
2021/12/31 09:33:22;;;;;;;7.50;2.90;;;11.80;71.20;;;;;;6238456;28;20038;-71
2021/12/31 09:36:23;;;;;;;6.85;3.17;;;11.90;71.10;;;;;;6240306;28;20521;-72
2021/12/31 09:39:24;;;;;;;6.90;3.50;;;11.90;70.90;;;;;;6234712;28;20045;-71
2021/12/31 09:42:25;;;;;;;7.57;3.75;;;12.00;70.90;;;;;;6211063;28;20038;-72
2021/12/31 09:45:28;;;;;;;7.50;3.60;;;12.10;70.90;;;;;;6215398;28;20102;-73
2021/12/31 09:48:29;;;;;;;5.32;3.28;;;12.20;70.90;;;;;;6241977;28;20033;-72
2021/12/31 09:51:30;;;;;;;7.68;3.75;;;12.30;70.70;;;;;;6236528;28;20375;-72
2021/12/31 09:54:31;;;;;;;8.05;3.25;;;12.30;70.60;;;;;;6212195;28;20041;-72
2021/12/31 09:57:32;;;;;;;6.38;3.65;;;12.40;70.50;;;;;;6234626;28;20061;-71
2021/12/31 10:00:34;;;;;;;8.77;4.32;;;12.50;70.60;;;;;;6235852;28;20045;-72
2021/12/31 10:03:36;;;;;;;6.45;3.72;;;12.60;71.00;;;;;;6217367;28;20037;-72
2021/12/31 10:06:38;;;;;;;12.00;4.55;;;12.90;70.80;;;;;;6202960;28;20065;-72
2021/12/31 10:09:40;;;;;;;8.45;4.63;;;13.20;70.00;;;;;;6217688;28;20069;-72
2021/12/31 10:12:56;;;;;;;17.67;7.53;;;13.50;69.40;;;;;;6207677;28;20037;-73
2021/12/31 10:15:57;;;;;;;25.70;13.07;;;13.80;68.70;;;;;;6180733;28;24289;-72
2021/12/31 10:19:12;;;;;;;10.75;5.97;;;14.10;67.80;;;;;;6211388;28;20061;-73
2021/12/31 10:22:19;;;;;;;7.45;4.43;;;14.10;67.00;;;;;;6215853;28;20029;-73
2021/12/31 10:25:22;;;;;;;10.18;4.10;;;14.30;66.60;;;;;;6227320;28;20048;-71
2021/12/31 10:28:23;;;;;;;9.27;3.88;;;14.50;65.70;;;;;;6219419;28;20057;-74
2021/12/31 10:31:27;;;;;;;6.65;3.17;;;14.60;64.90;;;;;;6214110;28;20453;-74
2021/12/31 10:34:37;;;;;;;13.57;3.47;;;14.70;64.40;;;;;;6225642;28;20447;-75
2021/12/31 10:37:47;;;;;;;11.27;3.42;;;14.90;64.10;;;;;;6219051;28;20367;-72
2021/12/31 10:40:48;;;;;;;11.38;3.58;;;15.00;63.10;;;;;;6227908;28;20068;-73
2021/12/31 10:43:58;;;;;;;9.15;3.00;;;15.20;62.50;;;;;;6234642;28;20034;-73
2021/12/31 10:47:16;;;;;;;11.48;4.05;;;15.40;61.90;;;;;;6231530;28;20052;-73
2021/12/31 10:50:19;;;;;;;6.28;3.38;;;15.60;60.80;;;;;;6233889;28;20339;-73
2021/12/31 10:53:34;;;;;;;6.28;3.20;;;15.90;59.80;;;;;;6234677;28;20140;-73
2021/12/31 10:56:40;;;;;;;16.75;8.63;;;16.20;59.70;;;;;;6223511;28;20054;-73
2021/12/31 10:59:41;;;;;;;16.27;7.57;;;16.60;59.00;;;;;;6229894;28;20051;-73
2021/12/31 11:02:45;;;;;;;15.57;4.88;;;17.10;57.80;;;;;;6228470;28;20132;-72
2021/12/31 11:05:48;;;;;;;10.68;4.63;;;17.60;56.70;;;;;;6225573;28;20098;-73
2021/12/31 11:08:54;;;;;;;13.27;5.32;;;18.10;55.30;;;;;;6215108;28;20034;-74
2021/12/31 11:11:57;;;;;;;24.20;10.95;;;18.50;54.10;;;;;;6195265;28;20362;-74
2021/12/31 11:14:58;;;;;;;27.52;12.95;;;18.80;53.10;;;;;;6214251;28;20088;-72
2021/12/31 11:17:59;;;;;;;16.35;8.88;;;19.30;52.80;;;;;;6212244;28;20053;-73
2021/12/31 11:21:04;;;;;;;12.07;5.30;;;19.60;51.70;;;;;;6205182;28;20038;-73
2021/12/31 11:24:32;;;;;;;9.20;4.85;;;20.00;51.00;;;;;;6214336;28;20037;-74
2021/12/31 11:27:42;;;;;;;16.23;5.95;;;20.60;49.90;;;;;;6198273;28;20037;-75
2021/12/31 11:30:43;;;;;;;19.65;7.15;;;21.00;48.00;;;;;;6220821;28;20069;-75
2021/12/31 11:34:12;;;;;;;8.55;4.70;;;21.10;46.60;;;;;;6223349;28;20121;-76
2021/12/31 11:37:44;;;;;;;14.07;6.43;;;21.20;46.00;;;;;;6223710;28;20036;-73
2021/12/31 11:40:50;;;;;;;13.68;5.82;;;21.30;45.90;;;;;;6231351;28;20048;-74
2021/12/31 11:44:09;;;;;;;12.50;4.75;;;21.20;45.40;;;;;;6233045;28;20037;-74
2021/12/31 11:47:18;;;;;;;15.75;7.57;;;21.00;46.10;;;;;;6218938;28;20045;-74
2021/12/31 11:50:29;;;;;;;10.65;4.95;;;20.50;47.20;;;;;;6216719;28;20068;-75
2021/12/31 11:53:31;;;;;;;7.78;3.47;;;19.90;47.90;;;;;;6221094;28;20056;-75
2021/12/31 11:56:47;;;;;;;10.32;3.50;;;19.20;49.00;;;;;;6191187;28;20049;-75
2021/12/31 11:59:53;;;;;;;9.93;3.95;;;18.70;50.40;;;;;;6231232;28;20064;-76
2021/12/31 12:02:55;;;;;;;10.82;4.97;;;18.30;51.60;;;;;;6206855;28;20063;-77
2021/12/31 12:05:56;;;;;;;9.43;3.63;;;17.90;52.10;;;;;;6221372;28;20037;-76
2021/12/31 12:08:57;;;;;;;12.00;3.53;;;17.60;52.90;;;;;;6232424;28;23647;-77
2021/12/31 12:12:27;;;;;;;9.35;3.80;;;17.50;53.50;;;;;;6245199;28;20047;-76
2021/12/31 12:15:31;;;;;;;16.95;6.15;;;17.30;54.00;;;;;;6223464;28;20996;-76
2021/12/31 12:19:00;;;;;;;17.63;8.02;;;17.20;54.40;;;;;;6207376;28;20037;-76
2021/12/31 12:22:01;;;;;;;22.55;9.70;;;17.10;54.80;;;;;;6232745;28;20167;-75
2021/12/31 12:25:21;;;;;;;21.23;7.82;;;17.00;54.60;;;;;;6223295;28;20411;-76
2021/12/31 12:28:23;;;;;;;9.52;3.70;;;16.90;54.60;;;;;;6216635;28;20086;-76
2021/12/31 12:31:24;;;;;;;9.60;4.30;;;16.80;54.70;;;;;;6228592;28;20152;-75
2021/12/31 12:34:28;;;;;;;39.47;14.80;;;16.80;54.80;;;;;;6205477;28;20041;-76
2021/12/31 12:37:30;;;;;;;13.25;4.20;;;16.80;54.70;;;;;;6205974;28;20056;-76
2021/12/31 12:40:44;;;;;;;8.98;4.32;;;16.70;54.40;;;;;;6209842;28;20476;-76
2021/12/31 12:43:48;;;;;;;10.57;3.72;;;16.70;54.60;;;;;;6208389;28;20782;-76
2021/12/31 12:46:58;;;;;;;12.25;5.63;;;16.70;54.70;;;;;;6221959;28;20044;-76
2021/12/31 12:50:00;;;;;;;5.07;3.03;;;16.70;54.40;;;;;;6209237;28;20478;-75
2021/12/31 12:53:01;;;;;;;8.35;3.00;;;16.60;54.40;;;;;;6189560;28;20396;-76
2021/12/31 12:56:06;;;;;;;12.10;2.55;;;16.60;54.70;;;;;;6178845;28;20029;-76
2021/12/31 12:59:07;;;;;;;10.25;4.88;;;16.70;54.90;;;;;;6207016;28;20699;-75
2021/12/31 13:02:08;;;;;;;22.25;7.78;;;16.70;55.10;;;;;;6210554;28;20041;-77
2021/12/31 13:05:14;;;;;;;12.23;4.22;;;16.70;55.30;;;;;;6212548;28;20136;-75
2021/12/31 13:08:17;;;;;;;3.63;1.80;;;16.80;55.40;;;;;;6219194;28;20090;-76
2021/12/31 13:11:19;;;;;;;6.45;2.55;;;16.80;55.30;;;;;;6217175;28;20029;-76
2021/12/31 13:14:27;;;;;;;5.63;2.00;;;16.80;55.10;;;;;;6220291;28;20146;-76
2021/12/31 13:17:28;;;;;;;5.93;2.42;;;16.80;55.10;;;;;;6212949;28;20041;-76
2021/12/31 13:20:32;;;;;;;6.60;1.83;;;16.90;55.00;;;;;;6172559;28;20045;-76
2021/12/31 13:23:34;;;;;;;8.10;2.00;;;16.90;54.60;;;;;;6195692;28;20108;-76
2021/12/31 13:26:36;;;;;;;3.53;2.17;;;16.90;54.50;;;;;;6222102;28;20100;-75
2021/12/31 13:29:44;;;;;;;2.90;1.90;;;16.90;54.40;;;;;;6213326;28;20534;-76
2021/12/31 13:32:47;;;;;;;6.20;2.60;;;16.90;54.40;;;;;;6225940;28;21023;-78
2021/12/31 13:36:07;;;;;;;5.82;3.05;;;17.00;54.40;;;;;;6218974;28;20398;-75
2021/12/31 13:39:13;;;;;;;8.18;2.30;;;17.00;54.20;;;;;;6220992;28;20052;-76
2021/12/31 13:42:17;;;;;;;6.55;2.10;;;17.00;54.10;;;;;;6230609;28;20064;-77
2021/12/31 13:45:20;;;;;;;6.43;1.95;;;17.10;54.00;;;;;;6213591;28;20045;-77
2021/12/31 13:48:22;;;;;;;8.35;1.85;;;17.10;54.00;;;;;;6226796;28;20053;-77
2021/12/31 13:51:33;;;;;;;5.05;1.80;;;17.10;54.00;;;;;;6205066;28;20688;-77
2021/12/31 13:54:40;;;;;;;4.30;1.67;;;17.20;54.00;;;;;;6235477;28;20048;-76
2021/12/31 13:57:52;;;;;;;5.45;2.10;;;17.20;54.10;;;;;;6234458;28;20051;-75
2021/12/31 14:00:53;;;;;;;4.68;1.70;;;17.20;53.80;;;;;;6233671;28;20045;-76
2021/12/31 14:04:10;;;;;;;1.90;1.45;;;17.20;53.90;;;;;;6233091;28;20136;-75
2021/12/31 14:07:20;;;;;;;6.00;1.83;;;17.20;54.00;;;;;;6241888;28;20045;-78
2021/12/31 14:10:31;;;;;;;8.35;2.42;;;17.30;54.00;;;;;;6244147;28;20049;-77
2021/12/31 14:13:38;;;;;;;36.05;15.27;;;17.30;54.10;;;;;;6219274;28;20061;-76
2021/12/31 14:16:39;;;;;;;24.38;9.30;;;17.30;54.10;;;;;;6228191;28;20055;-77
2021/12/31 14:19:41;;;;;;;10.25;3.53;;;17.30;54.20;;;;;;6223857;28;20136;-79
2021/12/31 14:22:43;;;;;;;17.80;7.88;;;17.30;54.20;;;;;;6217641;28;20041;-76
2021/12/31 14:25:45;;;;;;;8.98;3.65;;;17.30;54.30;;;;;;6207691;28;20045;-77
2021/12/31 14:28:47;;;;;;;5.10;3.40;;;17.30;54.30;;;;;;6209726;28;20041;-75
2021/12/31 14:31:48;;;;;;;6.40;1.95;;;17.20;54.30;;;;;;6194513;28;20077;-77
2021/12/31 14:34:50;;;;;;;2.63;1.73;;;17.20;54.40;;;;;;6164915;28;20348;-77
2021/12/31 14:37:52;;;;;;;4.35;2.20;;;17.20;54.40;;;;;;6197416;28;20542;-77
2021/12/31 14:41:02;;;;;;;3.72;1.58;;;17.20;54.40;;;;;;6205902;28;20041;-75
2021/12/31 14:44:04;;;;;;;4.70;1.80;;;17.20;54.40;;;;;;6192314;28;20421;-77
2021/12/31 14:47:07;;;;;;;6.55;1.80;;;17.30;54.50;;;;;;6205865;28;20037;-76
2021/12/31 14:50:10;;;;;;;2.33;1.60;;;17.30;54.40;;;;;;6223743;28;20509;-77
2021/12/31 14:53:11;;;;;;;4.00;1.75;;;17.30;54.10;;;;;;6222342;28;20041;-77
2021/12/31 14:56:12;;;;;;;4.45;1.92;;;17.30;54.00;;;;;;6225678;28;20060;-77
2021/12/31 14:59:14;;;;;;;7.68;2.28;;;17.30;54.20;;;;;;6184614;28;20036;-75
2021/12/31 15:02:15;;;;;;;5.13;2.00;;;17.30;54.20;;;;;;6209632;28;20041;-77
2021/12/31 15:05:16;;;;;;;7.68;2.30;;;17.30;54.30;;;;;;6212705;28;20390;-75
2021/12/31 15:08:17;;;;;;;5.43;2.05;;;17.30;54.30;;;;;;6206766;28;20079;-76
2021/12/31 15:11:20;;;;;;;4.90;1.98;;;17.20;54.20;;;;;;6210209;28;20053;-75
2021/12/31 15:14:22;;;;;;;5.93;2.13;;;17.20;54.30;;;;;;6183920;28;20080;-76
2021/12/31 15:17:24;;;;;;;8.20;2.42;;;17.20;54.40;;;;;;6198947;28;20056;-75
2021/12/31 15:20:25;;;;;;;5.18;2.60;;;17.10;54.30;;;;;;6194977;28;21291;-75
2021/12/31 15:23:27;;;;;;;5.60;2.13;;;17.10;54.40;;;;;;6185562;28;20042;-76
2021/12/31 15:26:28;;;;;;;7.20;2.60;;;17.10;54.40;;;;;;6196740;28;20233;-75
2021/12/31 15:29:30;;;;;;;5.55;2.58;;;17.10;54.40;;;;;;6196217;28;20083;-77
2021/12/31 15:32:31;;;;;;;12.10;4.43;;;17.10;55.00;;;;;;6210394;28;20029;-75
2021/12/31 15:35:32;;;;;;;19.70;9.23;;;17.00;54.40;;;;;;6194761;28;20133;-75
2021/12/31 15:38:35;;;;;;;15.23;5.22;;;17.00;54.50;;;;;;6190632;28;20149;-76
2021/12/31 15:41:41;;;;;;;5.75;2.30;;;16.90;54.60;;;;;;6183743;28;20037;-76
2021/12/31 15:44:42;;;;;;;6.28;2.80;;;16.90;54.80;;;;;;6189514;28;20865;-75
2021/12/31 15:47:46;;;;;;;4.55;2.42;;;16.80;54.70;;;;;;6187646;28;21016;-76
2021/12/31 15:50:47;;;;;;;6.63;2.60;;;16.80;55.50;;;;;;6183558;28;20042;-76
2021/12/31 15:53:48;;;;;;;3.40;1.98;;;16.80;55.00;;;;;;6182069;28;20056;-75
2021/12/31 15:56:49;;;;;;;8.80;2.70;;;16.70;55.00;;;;;;6189112;28;20538;-78